Time;durP1;ratioP1;P1;durP2;ratioP2;P2;SDS_P1;SDS_P2;PMS_P1;PMS_P2;Temp;Humidity;BMP_temperature;BMP_pressure;BME280_temperature;BME280_humidity;BME280_pressure;Samples;Min_cycle;Max_cycle;Signal;HPM_P1;HPM_P2
2023/12/08 00:00:12;;;;;;;11.30;8.25;;;7.70;63.80;9.50;100610.00;;;;5051676;28;20553;-77
2023/12/08 00:02:41;;;;;;;12.23;8.52;;;7.60;63.80;9.40;100598.00;;;;5035204;28;20724;-77
2023/12/08 00:05:09;;;;;;;12.00;9.02;;;7.60;63.90;9.50;100597.00;;;;5044469;28;20211;-77
2023/12/08 00:07:36;;;;;;;11.98;8.35;;;7.60;63.90;9.50;100593.00;;;;5050173;28;20192;-78
2023/12/08 00:10:04;;;;;;;12.13;8.20;;;7.60;63.90;9.50;100573.00;;;;5052687;28;20202;-77
2023/12/08 00:12:31;;;;;;;11.38;8.30;;;7.60;64.60;9.50;100579.00;;;;5067878;28;20208;-77
2023/12/08 00:14:57;;;;;;;12.25;8.65;;;7.60;63.90;9.50;100571.00;;;;5049559;28;20210;-77
2023/12/08 00:17:26;;;;;;;12.30;9.02;;;7.70;63.90;9.50;100566.00;;;;5051198;28;20196;-78
2023/12/08 00:19:55;;;;;;;14.93;9.00;;;7.60;63.90;9.50;100578.00;;;;5050158;28;20219;-77
2023/12/08 00:22:22;;;;;;;13.65;8.88;;;7.60;63.90;9.50;100570.00;;;;5050357;28;20654;-77
2023/12/08 00:24:49;;;;;;;12.27;8.50;;;7.60;64.00;9.50;100559.00;;;;5048995;28;20215;-77
2023/12/08 00:27:16;;;;;;;14.70;10.07;;;7.60;64.00;9.50;100546.00;;;;5050238;28;20249;-77
2023/12/08 00:29:44;;;;;;;13.40;9.07;;;7.70;64.10;9.50;100518.00;;;;5050660;28;20199;-76
2023/12/08 00:32:10;;;;;;;13.15;9.23;;;7.60;63.90;9.50;100522.00;;;;5050100;28;20246;-77
2023/12/08 00:34:37;;;;;;;13.38;9.10;;;7.70;64.00;9.50;100532.00;;;;5049416;28;20191;-77
2023/12/08 00:37:06;;;;;;;14.57;9.07;;;7.70;64.00;9.50;100534.00;;;;5050158;28;20602;-77
2023/12/08 00:39:33;;;;;;;15.10;9.93;;;7.60;63.90;9.50;100524.00;;;;5048959;28;20219;-77
2023/12/08 00:42:00;;;;;;;13.43;9.02;;;7.60;63.90;9.50;100516.00;;;;5049512;28;20196;-77
2023/12/08 00:44:27;;;;;;;13.52;9.93;;;7.60;64.00;9.50;100489.00;;;;5052755;28;20282;-77
2023/12/08 00:46:54;;;;;;;14.00;10.40;;;7.60;64.10;9.50;100494.00;;;;5052296;28;20697;-77
2023/12/08 00:49:21;;;;;;;14.25;9.65;;;7.60;64.10;9.50;100494.00;;;;5049467;28;20208;-77
2023/12/08 00:51:48;;;;;;;14.95;9.68;;;7.60;64.10;9.50;100499.00;;;;5039502;28;20196;-77
2023/12/08 00:54:16;;;;;;;13.90;9.95;;;7.60;64.10;9.50;100515.00;;;;5050180;28;20199;-77
2023/12/08 00:56:43;;;;;;;13.90;8.98;;;7.60;64.10;9.40;100514.00;;;;5044258;28;20274;-77
2023/12/08 00:59:10;;;;;;;13.77;9.35;;;7.60;64.20;9.40;100505.00;;;;5050087;28;20224;-77
2023/12/08 01:01:37;;;;;;;15.52;9.27;;;7.60;64.20;9.40;100495.00;;;;5055053;28;20221;-77
2023/12/08 01:04:04;;;;;;;15.57;9.95;;;7.60;64.20;9.40;100496.00;;;;5050641;28;20221;-77
2023/12/08 01:06:31;;;;;;;14.57;9.13;;;7.60;64.30;9.40;100496.00;;;;5049597;28;20203;-77
2023/12/08 01:08:58;;;;;;;13.70;9.80;;;7.60;64.40;9.50;100509.00;;;;5049596;28;20196;-78
2023/12/08 01:11:26;;;;;;;13.30;9.18;;;7.60;64.40;9.40;100490.00;;;;5047586;28;20847;-77
2023/12/08 01:13:53;;;;;;;13.38;9.02;;;7.60;64.40;9.50;100505.00;;;;5045120;28;20203;-77
2023/12/08 01:16:20;;;;;;;13.77;9.68;;;7.60;64.40;9.50;100493.00;;;;5047440;28;20188;-78
2023/12/08 01:18:47;;;;;;;13.95;9.77;;;7.60;64.40;9.50;100489.00;;;;5045852;28;21012;-78
2023/12/08 01:21:15;;;;;;;13.68;9.10;;;7.60;64.40;9.50;100482.00;;;;5046522;28;20195;-78
2023/12/08 01:23:42;;;;;;;12.68;9.52;;;7.60;64.40;9.50;100472.00;;;;5041233;28;20188;-77
2023/12/08 01:26:10;;;;;;;14.77;9.25;;;7.60;64.40;9.50;100476.00;;;;5048375;28;20662;-77
2023/12/08 01:28:38;;;;;;;11.45;8.43;;;7.60;64.40;9.50;100482.00;;;;5047172;28;20198;-78
2023/12/08 01:31:05;;;;;;;15.15;9.98;;;7.60;64.40;9.50;100490.00;;;;5042629;28;20242;-77
2023/12/08 01:33:33;;;;;;;15.68;10.43;;;7.60;64.40;9.50;100489.00;;;;5048448;28;20207;-77
2023/12/08 01:36:00;;;;;;;14.75;9.02;;;7.60;64.40;9.50;100479.00;;;;5046568;28;20211;-77
2023/12/08 01:38:28;;;;;;;14.40;9.32;;;7.60;64.40;9.50;100481.00;;;;5045668;28;20219;-76
2023/12/08 01:40:55;;;;;;;11.73;9.18;;;7.70;64.40;9.50;100476.00;;;;5049154;28;20196;-75
2023/12/08 01:43:23;;;;;;;12.15;8.35;;;7.70;64.40;9.50;100487.00;;;;5048767;28;20988;-76
2023/12/08 01:45:52;;;;;;;13.52;9.02;;;7.70;64.40;9.50;100496.00;;;;5049418;28;20581;-76
2023/12/08 01:48:19;;;;;;;14.20;9.65;;;7.70;64.40;9.60;100492.00;;;;5046903;28;20227;-76
2023/12/08 01:50:47;;;;;;;13.07;9.32;;;7.70;64.30;9.60;100498.00;;;;5047295;28;20220;-76
2023/12/08 01:53:13;;;;;;;11.70;8.00;;;7.70;64.30;9.60;100502.00;;;;5056329;28;20199;-75
2023/12/08 01:55:41;;;;;;;13.48;9.32;;;7.70;64.30;9.60;100503.00;;;;5048807;28;20200;-76
2023/12/08 01:58:09;;;;;;;15.35;9.85;;;7.70;64.30;9.60;100492.00;;;;5048877;28;20204;-76
2023/12/08 02:00:36;;;;;;;13.73;9.38;;;7.70;64.30;9.60;100486.00;;;;5034132;28;20246;-75
2023/12/08 02:03:05;;;;;;;12.02;8.55;;;7.70;64.30;9.60;100491.00;;;;5047678;28;20561;-76
2023/12/08 02:05:33;;;;;;;15.05;8.60;;;7.70;64.30;9.60;100488.00;;;;5037327;28;20208;-77
2023/12/08 02:08:01;;;;;;;11.52;8.52;;;7.70;64.30;9.60;100476.00;;;;5044043;28;20215;-77
2023/12/08 02:10:28;;;;;;;10.93;7.95;;;7.70;64.20;9.60;100476.00;;;;5052156;28;20678;-77
2023/12/08 02:12:55;;;;;;;12.73;9.15;;;7.70;64.30;9.70;100475.00;;;;5047892;28;20196;-77
2023/12/08 02:15:22;;;;;;;11.57;8.23;;;7.70;64.30;9.70;100478.00;;;;5046333;28;20210;-77
2023/12/08 02:17:50;;;;;;;11.68;8.43;;;7.70;64.30;9.70;100463.00;;;;5048727;28;20203;-77
2023/12/08 02:20:20;;;;;;;10.77;7.65;;;7.80;64.30;9.70;100456.00;;;;5047590;28;20235;-77
2023/12/08 02:22:47;;;;;;;15.50;8.70;;;7.80;64.30;9.80;100462.00;;;;5046928;28;20582;-77
2023/12/08 02:25:16;;;;;;;13.07;9.65;;;7.80;64.30;9.70;100456.00;;;;5047783;28;20203;-77
2023/12/08 02:27:43;;;;;;;14.25;8.82;;;7.80;64.30;9.80;100453.00;;;;5049232;28;20203;-76
2023/12/08 02:30:11;;;;;;;13.18;9.40;;;7.80;64.30;9.80;100439.00;;;;5044409;28;20208;-77
2023/12/08 02:32:46;;;;;;;10.45;8.15;;;7.90;64.40;9.70;100434.00;;;;5044922;28;20195;-77
2023/12/08 02:35:17;;;;;;;11.23;8.27;;;7.80;64.20;9.80;100438.00;;;;5040865;28;20191;-77
2023/12/08 02:37:49;;;;;;;11.88;8.20;;;7.80;64.20;9.80;100438.00;;;;5047490;28;20206;-77
2023/12/08 02:40:18;;;;;;;11.10;7.50;;;7.80;64.20;9.80;100422.00;;;;5046444;28;20220;-78
2023/12/08 02:42:45;;;;;;;11.20;8.32;;;7.90;64.30;9.80;100418.00;;;;5045612;28;20204;-77
2023/12/08 02:45:12;;;;;;;12.27;8.57;;;7.90;64.30;9.80;100418.00;;;;5047285;28;20204;-77
2023/12/08 02:47:39;;;;;;;14.23;9.15;;;7.90;64.30;9.80;100408.00;;;;5045786;28;20596;-77
2023/12/08 02:50:07;;;;;;;12.30;8.35;;;7.90;64.30;9.80;100403.00;;;;5046646;28;20223;-77
2023/12/08 02:52:34;;;;;;;10.13;8.25;;;7.80;64.30;9.80;100411.00;;;;5035832;28;20195;-77
2023/12/08 02:55:01;;;;;;;11.73;7.68;;;7.80;64.40;9.70;100405.00;;;;5047357;28;20198;-77
2023/12/08 02:57:29;;;;;;;13.35;7.65;;;7.80;64.50;9.70;100391.00;;;;5046292;28;20259;-76
2023/12/08 02:59:56;;;;;;;10.13;7.32;;;7.80;64.50;9.70;100381.00;;;;5047895;28;20258;-77
2023/12/08 03:02:23;;;;;;;11.55;8.48;;;7.80;64.50;9.70;100387.00;;;;5042940;28;20669;-77
2023/12/08 03:04:50;;;;;;;11.25;8.00;;;7.80;64.60;9.70;100390.00;;;;5045283;28;20191;-76
2023/12/08 03:07:17;;;;;;;11.80;7.93;;;7.80;64.60;9.70;100383.00;;;;5039382;28;20204;-77
2023/12/08 03:09:44;;;;;;;10.70;8.23;;;7.80;64.70;9.70;100385.00;;;;5048982;28;20214;-77
2023/12/08 03:12:12;;;;;;;10.88;8.27;;;7.80;64.70;9.70;100374.00;;;;5045628;28;20207;-76
2023/12/08 03:14:40;;;;;;;10.82;7.82;;;7.70;64.70;9.70;100370.00;;;;5046549;28;20202;-76
2023/12/08 03:17:08;;;;;;;10.10;7.43;;;7.70;64.80;9.70;100370.00;;;;5046543;28;20199;-77
2023/12/08 03:19:35;;;;;;;10.60;7.88;;;7.80;64.80;9.70;100368.00;;;;5045870;28;20708;-77
2023/12/08 03:22:02;;;;;;;10.63;7.72;;;7.70;64.80;9.70;100359.00;;;;5036377;28;20196;-76
2023/12/08 03:24:29;;;;;;;11.48;8.32;;;7.70;64.90;9.70;100349.00;;;;5050832;28;20195;-77
2023/12/08 03:26:56;;;;;;;9.95;6.80;;;7.70;64.90;9.70;100357.00;;;;5050189;28;20204;-76
2023/12/08 03:29:23;;;;;;;12.35;9.05;;;7.70;64.90;9.70;100360.00;;;;5050265;28;20196;-76
2023/12/08 03:31:51;;;;;;;11.77;7.60;;;7.70;64.90;9.60;100353.00;;;;5046756;28;20202;-77
2023/12/08 03:34:18;;;;;;;12.98;9.20;;;7.70;65.00;9.70;100354.00;;;;5050639;28;20203;-76
2023/12/08 03:36:45;;;;;;;10.52;7.55;;;7.70;65.00;9.60;100360.00;;;;5049358;28;21055;-77
2023/12/08 03:39:12;;;;;;;10.25;7.43;;;7.70;65.10;9.60;100362.00;;;;5050545;28;20227;-76
2023/12/08 03:41:39;;;;;;;10.98;7.95;;;7.70;65.10;9.60;100366.00;;;;5046335;28;20658;-77
2023/12/08 03:44:06;;;;;;;12.02;7.85;;;7.70;65.10;9.60;100357.00;;;;5050842;28;20203;-76
2023/12/08 03:46:34;;;;;;;12.32;8.30;;;7.70;65.20;9.60;100354.00;;;;5048363;28;20232;-76
2023/12/08 03:49:02;;;;;;;10.30;7.72;;;7.70;65.20;9.60;100358.00;;;;5047041;28;20246;-77
2023/12/08 03:51:31;;;;;;;9.80;7.10;;;7.70;65.20;9.60;100355.00;;;;5041290;28;20262;-76
2023/12/08 03:53:58;;;;;;;12.15;8.18;;;7.70;65.20;9.60;100355.00;;;;5051651;28;20286;-76
2023/12/08 03:56:25;;;;;;;11.77;7.65;;;7.70;65.20;9.50;100349.00;;;;5047211;28;20730;-76
2023/12/08 03:58:52;;;;;;;9.02;6.97;;;7.70;65.20;9.50;100348.00;;;;5048213;28;20203;-76
2023/12/08 04:01:20;;;;;;;10.40;7.25;;;7.70;65.20;9.50;100348.00;;;;5046869;28;20199;-76
2023/12/08 04:03:48;;;;;;;12.57;8.15;;;7.60;65.20;9.50;100355.00;;;;5048012;28;20195;-77
2023/12/08 04:06:16;;;;;;;9.38;6.70;;;7.70;65.30;9.50;100351.00;;;;5041009;28;20200;-76
2023/12/08 04:08:43;;;;;;;13.13;8.07;;;7.60;66.00;9.50;100350.00;;;;5051805;28;20191;-76
2023/12/08 04:11:10;;;;;;;11.95;7.85;;;7.60;65.40;9.50;100343.00;;;;5050194;28;20214;-76
2023/12/08 04:13:39;;;;;;;11.95;8.20;;;7.60;65.40;9.50;100349.00;;;;5048414;28;20207;-76
2023/12/08 04:16:08;;;;;;;10.23;7.72;;;7.60;65.50;9.50;100352.00;;;;5047993;28;20211;-76
2023/12/08 04:18:36;;;;;;;11.30;7.70;;;7.60;65.50;9.50;100354.00;;;;5046588;28;20192;-77
2023/12/08 04:21:03;;;;;;;10.63;7.35;;;7.60;65.60;9.50;100351.00;;;;5048584;28;20712;-76
2023/12/08 04:23:31;;;;;;;11.77;8.38;;;7.60;65.60;9.50;100347.00;;;;5042611;28;20684;-76
2023/12/08 04:25:58;;;;;;;10.60;7.05;;;7.60;65.70;9.50;100362.00;;;;5044877;28;20203;-76
2023/12/08 04:28:25;;;;;;;11.40;7.95;;;7.60;65.70;9.50;100356.00;;;;5048473;28;20203;-76
2023/12/08 04:30:52;;;;;;;11.68;7.85;;;7.60;65.70;9.50;100356.00;;;;5050308;28;20188;-76
2023/12/08 04:33:19;;;;;;;11.90;7.93;;;7.60;65.80;9.50;100349.00;;;;5049491;28;20203;-76
2023/12/08 04:35:46;;;;;;;12.00;8.45;;;7.60;66.50;9.50;100343.00;;;;5049848;28;20665;-76
2023/12/08 04:38:13;;;;;;;10.52;7.85;;;7.60;65.80;9.60;100341.00;;;;5049886;28;20195;-76
2023/12/08 04:40:42;;;;;;;11.57;8.18;;;7.60;65.80;9.50;100349.00;;;;5049708;28;20223;-76
2023/12/08 04:43:09;;;;;;;11.43;7.75;;;7.70;65.90;9.60;100349.00;;;;5053083;28;20588;-76
2023/12/08 04:45:36;;;;;;;13.15;9.02;;;7.70;66.50;9.60;100353.00;;;;5050252;28;20192;-76
2023/12/08 04:48:04;;;;;;;10.75;7.88;;;7.60;65.80;9.60;100343.00;;;;5048286;28;20630;-76
2023/12/08 04:50:31;;;;;;;11.32;8.27;;;7.70;65.90;9.60;100353.00;;;;5048190;28;20234;-76
2023/12/08 04:52:57;;;;;;;11.85;8.30;;;7.70;65.90;9.60;100355.00;;;;5050211;28;20666;-76
2023/12/08 04:55:25;;;;;;;13.00;8.82;;;7.70;65.80;9.60;100353.00;;;;5049694;28;20543;-76
2023/12/08 04:57:53;;;;;;;11.20;7.43;;;7.70;65.90;9.60;100355.00;;;;5032249;28;20271;-77
2023/12/08 05:00:21;;;;;;;10.63;7.43;;;7.70;65.90;9.60;100361.00;;;;5043770;28;20251;-76
2023/12/08 05:02:48;;;;;;;10.90;7.82;;;7.70;65.90;9.60;100367.00;;;;5049320;28;20192;-76
2023/12/08 05:05:16;;;;;;;12.15;7.85;;;7.70;65.90;9.60;100363.00;;;;5049570;28;20206;-76
2023/12/08 05:07:42;;;;;;;11.25;8.07;;;7.70;65.90;9.60;100342.00;;;;5047923;28;20196;-76
2023/12/08 05:10:10;;;;;;;11.63;7.85;;;7.70;65.90;9.60;100330.00;;;;5046362;28;20208;-76
2023/12/08 05:12:37;;;;;;;11.75;8.23;;;7.70;65.90;9.60;100335.00;;;;5048803;28;20248;-76
2023/12/08 05:15:07;;;;;;;11.90;8.90;;;7.70;65.90;9.60;100343.00;;;;5049507;28;20665;-76
2023/12/08 05:17:34;;;;;;;12.15;9.00;;;7.70;65.90;9.60;100332.00;;;;5040882;28;20195;-76
2023/12/08 05:20:03;;;;;;;10.82;7.80;;;7.70;65.90;9.60;100325.00;;;;5039045;28;21585;-76
2023/12/08 05:22:30;;;;;;;10.77;7.85;;;7.70;65.90;9.70;100323.00;;;;5040251;28;20197;-76
2023/12/08 05:24:57;;;;;;;11.27;8.35;;;7.70;65.90;9.70;100315.00;;;;5045280;28;20235;-76
2023/12/08 05:27:24;;;;;;;10.57;7.75;;;7.70;65.90;9.70;100323.00;;;;5039890;28;20204;-76
2023/12/08 05:29:50;;;;;;;11.27;8.07;;;7.70;66.00;9.70;100313.00;;;;5043972;28;20222;-76
2023/12/08 05:32:19;;;;;;;10.95;8.65;;;7.70;66.00;9.70;100310.00;;;;5048410;28;20199;-76
2023/12/08 05:34:46;;;;;;;13.80;8.52;;;7.70;66.00;9.70;100314.00;;;;5047944;28;20214;-76
2023/12/08 05:37:13;;;;;;;13.27;8.32;;;7.80;66.00;9.70;100326.00;;;;5046274;28;20199;-76
2023/12/08 05:39:40;;;;;;;13.65;9.00;;;7.80;66.00;9.70;100320.00;;;;5046318;28;20227;-76
2023/12/08 05:42:07;;;;;;;12.50;8.75;;;7.80;66.00;9.70;100332.00;;;;5048612;28;20211;-76
2023/12/08 05:44:33;;;;;;;14.98;9.70;;;7.80;66.10;9.80;100338.00;;;;5047305;28;20196;-75
2023/12/08 05:47:00;;;;;;;11.15;8.40;;;7.80;66.10;9.80;100334.00;;;;5048011;28;20227;-76
2023/12/08 05:49:29;;;;;;;11.23;8.05;;;7.80;66.10;9.80;100334.00;;;;5047807;28;20236;-77
2023/12/08 05:51:56;;;;;;;12.45;8.68;;;7.80;66.80;9.80;100335.00;;;;5042579;28;20208;-75
2023/12/08 05:54:23;;;;;;;9.88;7.40;;;7.80;66.10;9.80;100345.00;;;;5041544;28;20650;-75
2023/12/08 05:56:50;;;;;;;10.88;7.50;;;7.80;66.10;9.80;100334.00;;;;5043789;28;20203;-76
2023/12/08 05:59:17;;;;;;;11.32;7.60;;;7.80;66.10;9.80;100330.00;;;;5041685;28;20192;-76
2023/12/08 06:01:44;;;;;;;11.77;7.93;;;7.80;66.10;9.80;100336.00;;;;5041104;28;20571;-76
2023/12/08 06:04:13;;;;;;;9.73;7.35;;;7.80;66.10;9.80;100337.00;;;;5037224;28;20201;-76
2023/12/08 06:06:41;;;;;;;12.13;8.57;;;7.90;66.20;9.80;100334.00;;;;5037198;28;20228;-76
2023/12/08 06:09:09;;;;;;;11.73;8.00;;;7.80;66.10;9.80;100344.00;;;;5043431;28;20192;-78
2023/12/08 06:11:37;;;;;;;12.02;8.90;;;7.90;66.10;9.80;100342.00;;;;5038390;28;20223;-77
2023/12/08 06:14:05;;;;;;;11.93;8.02;;;7.90;66.20;9.80;100348.00;;;;5037424;28;20200;-77
2023/12/08 06:16:32;;;;;;;12.95;8.52;;;7.90;66.10;9.80;100345.00;;;;5038989;28;20195;-77
2023/12/08 06:18:59;;;;;;;11.85;8.25;;;7.90;66.20;9.80;100342.00;;;;5043249;28;20200;-77
2023/12/08 06:21:27;;;;;;;12.23;8.82;;;7.90;66.20;9.80;100334.00;;;;5037382;28;20223;-77
2023/12/08 06:23:55;;;;;;;12.52;8.63;;;7.90;66.20;9.80;100341.00;;;;5037139;28;20204;-77
2023/12/08 06:26:24;;;;;;;12.43;8.77;;;7.90;66.20;9.80;100345.00;;;;5039512;28;20200;-77
2023/12/08 06:28:51;;;;;;;11.10;8.10;;;7.90;66.20;9.80;100343.00;;;;5046881;28;20195;-77
2023/12/08 06:31:17;;;;;;;11.73;8.60;;;7.90;66.20;9.80;100340.00;;;;5048034;28;20206;-77
2023/12/08 06:33:44;;;;;;;12.25;8.20;;;7.90;66.20;9.80;100341.00;;;;5046203;28;20195;-77
2023/12/08 06:36:12;;;;;;;11.00;8.30;;;7.90;66.20;9.80;100338.00;;;;5046955;28;20675;-78
2023/12/08 06:38:40;;;;;;;11.68;8.98;;;7.90;66.20;9.80;100349.00;;;;5047972;28;20709;-77
2023/12/08 06:41:08;;;;;;;12.15;8.40;;;7.90;66.30;9.80;100342.00;;;;5049010;28;20588;-77
2023/12/08 06:43:35;;;;;;;10.75;7.97;;;7.90;66.30;9.80;100348.00;;;;5045869;28;20200;-77
2023/12/08 06:46:02;;;;;;;13.80;9.32;;;7.90;66.30;9.80;100358.00;;;;5047674;28;20204;-77
2023/12/08 06:48:29;;;;;;;10.48;7.93;;;7.90;66.40;9.90;100356.00;;;;5044634;28;20214;-78
2023/12/08 06:50:56;;;;;;;11.90;8.25;;;7.90;66.30;9.90;100343.00;;;;5044339;28;20204;-78
2023/12/08 06:53:23;;;;;;;12.07;8.48;;;8.00;66.40;9.90;100343.00;;;;5042073;28;20199;-77
2023/12/08 06:55:50;;;;;;;11.90;8.25;;;8.00;66.40;9.90;100351.00;;;;5039361;28;20187;-77
2023/12/08 06:58:19;;;;;;;11.43;8.05;;;8.00;66.40;9.90;100350.00;;;;5051564;28;20698;-77
2023/12/08 07:00:45;;;;;;;11.90;8.13;;;8.00;66.40;9.90;100359.00;;;;5044879;28;20238;-77
2023/12/08 07:03:12;;;;;;;13.18;8.45;;;8.00;66.50;10.00;100364.00;;;;5034031;28;20208;-77
2023/12/08 07:05:39;;;;;;;12.43;9.02;;;8.00;66.50;10.00;100355.00;;;;5046213;28;20203;-78
2023/12/08 07:08:06;;;;;;;12.00;8.90;;;8.00;66.60;10.00;100350.00;;;;5047808;28;20210;-79
2023/12/08 07:10:33;;;;;;;11.15;7.85;;;8.00;66.60;10.00;100359.00;;;;5046967;28;20207;-79
2023/12/08 07:13:00;;;;;;;13.75;8.85;;;8.00;66.60;10.00;100354.00;;;;5046721;28;20621;-79
2023/12/08 07:15:29;;;;;;;11.85;7.32;;;8.10;66.60;10.00;100353.00;;;;5051429;28;20228;-79
2023/12/08 07:17:56;;;;;;;10.20;7.95;;;8.10;66.60;10.00;100354.00;;;;5043507;28;20193;-79
2023/12/08 07:20:23;;;;;;;12.15;7.82;;;8.10;66.60;10.00;100361.00;;;;5030451;28;20215;-80
2023/12/08 07:22:50;;;;;;;11.02;7.63;;;8.10;66.60;10.00;100360.00;;;;5035472;28;20191;-79
2023/12/08 07:25:17;;;;;;;13.57;8.95;;;8.10;66.70;10.00;100355.00;;;;5036720;28;20211;-80
2023/12/08 07:27:44;;;;;;;12.70;8.45;;;8.10;66.60;10.00;100355.00;;;;5043259;28;20202;-79
2023/12/08 07:30:12;;;;;;;12.57;8.55;;;8.10;66.60;10.10;100368.00;;;;5044455;28;20208;-79
2023/12/08 07:32:40;;;;;;;10.95;7.78;;;8.10;66.70;10.10;100369.00;;;;5054230;28;20198;-79
2023/12/08 07:35:08;;;;;;;11.82;8.40;;;8.10;66.70;10.10;100360.00;;;;5054458;28;20977;-79
2023/12/08 07:37:40;;;;;;;12.23;8.13;;;8.10;66.70;10.00;100358.00;;;;5042817;28;20212;-79
2023/12/08 07:40:09;;;;;;;13.18;8.27;;;8.20;66.80;10.10;100380.00;;;;5027693;28;20204;-79
2023/12/08 07:42:36;;;;;;;12.45;7.80;;;8.10;66.80;10.10;100380.00;;;;5043572;28;20199;-79
2023/12/08 07:45:04;;;;;;;10.85;8.10;;;8.20;66.90;10.10;100384.00;;;;5046329;28;20227;-79
2023/12/08 07:47:32;;;;;;;13.30;8.18;;;8.20;66.90;10.10;100376.00;;;;5047037;28;20239;-79
2023/12/08 07:50:00;;;;;;;12.50;8.32;;;8.20;66.90;10.10;100383.00;;;;5047139;28;20306;-80
2023/12/08 07:52:27;;;;;;;12.38;8.45;;;8.20;67.00;10.20;100388.00;;;;5044366;28;20218;-79
2023/12/08 07:54:54;;;;;;;12.90;7.80;;;8.20;67.00;10.20;100379.00;;;;5044491;28;20780;-79
2023/12/08 07:57:21;;;;;;;10.75;8.15;;;8.20;67.00;10.20;100377.00;;;;5047448;28;20203;-79
2023/12/08 07:59:48;;;;;;;14.63;8.93;;;8.30;67.10;10.20;100382.00;;;;5047100;28;20204;-80
2023/12/08 08:02:15;;;;;;;14.43;9.27;;;8.30;67.10;10.20;100390.00;;;;5046377;28;20227;-79
2023/12/08 08:04:43;;;;;;;14.13;8.30;;;8.30;67.20;10.20;100395.00;;;;5047169;28;21095;-79
2023/12/08 08:07:11;;;;;;;10.15;7.47;;;8.30;67.20;10.20;100395.00;;;;5046670;28;20302;-79
2023/12/08 08:09:38;;;;;;;9.98;6.88;;;8.30;67.10;10.20;100405.00;;;;5047202;28;20192;-79
2023/12/08 08:12:06;;;;;;;15.25;8.85;;;8.30;67.20;10.30;100410.00;;;;5048940;28;20863;-80
2023/12/08 08:14:33;;;;;;;10.18;7.20;;;8.40;67.30;10.30;100401.00;;;;5047916;28;20242;-79
2023/12/08 08:17:02;;;;;;;12.52;7.63;;;8.40;67.30;10.30;100407.00;;;;5050696;28;20278;-79
2023/12/08 08:19:29;;;;;;;11.63;7.82;;;8.40;67.40;10.30;100400.00;;;;5047425;28;20200;-79
2023/12/08 08:21:56;;;;;;;10.10;7.47;;;8.40;67.40;10.30;100412.00;;;;5049645;28;20230;-79
2023/12/08 08:24:24;;;;;;;10.30;7.53;;;8.40;67.40;10.40;100410.00;;;;5049102;28;20215;-79
2023/12/08 08:26:51;;;;;;;9.90;6.97;;;8.40;67.40;10.40;100399.00;;;;5044759;28;20207;-79
2023/12/08 08:29:18;;;;;;;12.63;7.97;;;8.40;68.10;10.40;100415.00;;;;5042770;28;20226;-79
2023/12/08 08:31:45;;;;;;;9.27;6.90;;;8.50;67.40;10.40;100404.00;;;;5048860;28;20207;-78
2023/12/08 08:34:12;;;;;;;10.65;8.23;;;8.50;67.40;10.40;100405.00;;;;5049657;28;20282;-79
2023/12/08 08:36:39;;;;;;;9.18;7.03;;;8.50;67.40;10.40;100408.00;;;;5049790;28;20191;-78
2023/12/08 08:39:07;;;;;;;12.20;8.15;;;8.50;67.40;10.40;100414.00;;;;5049390;28;20219;-79
2023/12/08 08:41:35;;;;;;;11.50;8.00;;;8.50;67.40;10.40;100412.00;;;;5049890;28;20218;-79
2023/12/08 08:44:02;;;;;;;13.02;7.70;;;8.60;67.50;10.40;100409.00;;;;5049789;28;20199;-78
2023/12/08 08:46:29;;;;;;;10.73;7.55;;;8.50;67.50;10.50;100412.00;;;;5050206;28;20219;-79
2023/12/08 08:48:57;;;;;;;12.60;7.97;;;8.60;67.60;10.50;100417.00;;;;5049450;28;20199;-79
2023/12/08 08:51:24;;;;;;;9.80;7.00;;;8.60;68.30;10.50;100415.00;;;;5049583;28;20211;-79
2023/12/08 08:53:51;;;;;;;11.88;8.00;;;8.60;67.60;10.50;100417.00;;;;5048797;28;20752;-79
2023/12/08 08:56:18;;;;;;;10.30;7.28;;;8.60;67.60;10.50;100422.00;;;;5049022;28;20195;-79
2023/12/08 08:58:47;;;;;;;12.00;7.90;;;8.60;67.70;10.60;100428.00;;;;5047059;28;20203;-79
2023/12/08 09:01:14;;;;;;;10.23;7.38;;;8.60;67.70;10.60;100434.00;;;;5045790;28;20220;-79
2023/12/08 09:03:41;;;;;;;13.23;8.52;;;8.70;67.80;10.60;100434.00;;;;5048513;28;20208;-79
2023/12/08 09:06:08;;;;;;;14.68;7.20;;;8.70;67.80;10.60;100433.00;;;;5048910;28;20195;-79
2023/12/08 09:08:35;;;;;;;12.35;8.57;;;8.70;67.70;10.70;100445.00;;;;5047688;28;20650;-79
2023/12/08 09:11:02;;;;;;;11.35;7.15;;;8.70;68.50;10.70;100444.00;;;;5049907;28;20191;-79
2023/12/08 09:13:31;;;;;;;17.25;8.27;;;8.80;67.80;10.70;100447.00;;;;5047604;28;20286;-79
2023/12/08 09:15:59;;;;;;;10.07;7.30;;;8.80;67.80;10.70;100450.00;;;;5051108;28;20878;-79
2023/12/08 09:18:27;;;;;;;10.23;7.28;;;8.80;67.80;10.70;100445.00;;;;5048347;28;20568;-80
2023/12/08 09:20:54;;;;;;;12.30;8.10;;;8.90;67.90;10.80;100442.00;;;;5047453;28;20227;-79
2023/12/08 09:23:21;;;;;;;11.70;7.70;;;8.80;67.80;10.80;100445.00;;;;5047196;28;20978;-79
2023/12/08 09:25:48;;;;;;;12.52;7.65;;;8.90;67.90;10.80;100442.00;;;;5048884;28;20216;-79
2023/12/08 09:28:17;;;;;;;13.45;8.60;;;8.90;67.90;10.80;100449.00;;;;5048755;28;20192;-79
2023/12/08 09:30:44;;;;;;;15.02;8.20;;;8.90;68.00;10.80;100441.00;;;;5047012;28;20199;-79
2023/12/08 09:33:12;;;;;;;16.02;8.80;;;8.90;68.00;10.90;100444.00;;;;5052975;28;20207;-79
2023/12/08 09:35:39;;;;;;;16.70;8.65;;;9.00;68.10;10.90;100451.00;;;;5049417;28;20210;-79
2023/12/08 09:38:06;;;;;;;14.82;8.55;;;9.00;68.10;10.90;100451.00;;;;5049337;28;20285;-79
2023/12/08 09:40:37;;;;;;;13.68;7.45;;;9.00;68.10;10.90;100447.00;;;;5047833;28;20681;-79
2023/12/08 09:43:16;;;;;;;14.43;7.82;;;9.00;68.10;10.90;100452.00;;;;5047082;28;20206;-79
2023/12/08 09:45:46;;;;;;;11.45;7.53;;;9.00;68.10;11.00;100448.00;;;;5047071;28;20199;-79
2023/12/08 09:48:15;;;;;;;13.20;8.65;;;9.10;68.80;11.00;100450.00;;;;5046368;28;20223;-79
2023/12/08 09:50:42;;;;;;;12.63;7.97;;;9.10;68.10;11.00;100439.00;;;;5046924;28;20685;-79
2023/12/08 09:53:10;;;;;;;12.35;7.43;;;9.10;68.10;11.10;100442.00;;;;5048751;28;20203;-79
2023/12/08 09:55:38;;;;;;;12.75;7.18;;;9.20;68.20;11.10;100449.00;;;;5047600;28;20207;-80
2023/12/08 09:58:05;;;;;;;13.23;8.63;;;9.20;68.30;11.10;100459.00;;;;5048918;28;20195;-79
2023/12/08 10:00:33;;;;;;;12.90;8.07;;;9.20;68.30;11.20;100457.00;;;;5047035;28;20203;-79
2023/12/08 10:03:01;;;;;;;13.77;8.07;;;9.20;68.30;11.20;100464.00;;;;5038491;28;20231;-79
2023/12/08 10:05:29;;;;;;;10.95;7.38;;;9.30;68.40;11.20;100459.00;;;;5049243;28;20204;-79
2023/12/08 10:07:59;;;;;;;11.73;7.70;;;9.30;68.40;11.30;100464.00;;;;5047511;28;20207;-79
2023/12/08 10:10:26;;;;;;;16.02;7.90;;;9.30;68.30;11.30;100454.00;;;;5048335;28;20198;-79
2023/12/08 10:12:53;;;;;;;16.40;8.88;;;9.40;68.40;11.30;100461.00;;;;5044433;28;20200;-80
2023/12/08 10:15:22;;;;;;;14.77;8.30;;;9.40;68.30;11.30;100464.00;;;;5047049;28;20689;-80
2023/12/08 10:17:51;;;;;;;15.02;8.98;;;9.40;68.30;11.40;100471.00;;;;5047803;28;20250;-79
2023/12/08 10:20:20;;;;;;;13.80;7.47;;;9.40;68.30;11.40;100470.00;;;;5048105;28;20626;-79
2023/12/08 10:22:51;;;;;;;14.77;8.57;;;9.40;68.30;11.40;100465.00;;;;5048850;28;20219;-79
2023/12/08 10:25:20;;;;;;;12.82;7.88;;;9.50;68.30;11.40;100455.00;;;;5049182;28;20196;-79
2023/12/08 10:27:50;;;;;;;16.70;8.38;;;9.50;68.30;11.50;100456.00;;;;5047551;28;20546;-79
2023/12/08 10:30:18;;;;;;;13.73;7.70;;;9.60;68.40;11.50;100448.00;;;;5048649;28;20225;-79
2023/12/08 10:32:48;;;;;;;14.73;8.90;;;9.60;68.50;11.50;100452.00;;;;5047915;28;20217;-79
2023/12/08 10:35:15;;;;;;;14.52;8.55;;;9.60;68.50;11.60;100456.00;;;;5047330;28;20204;-80
2023/12/08 10:37:44;;;;;;;13.05;8.43;;;9.60;68.50;11.60;100455.00;;;;5046174;28;20203;-80
2023/12/08 10:40:17;;;;;;;16.58;8.30;;;9.70;68.60;11.60;100464.00;;;;5050287;28;21970;-79
2023/12/08 10:42:47;;;;;;;14.70;8.32;;;9.70;68.70;11.70;100461.00;;;;5046835;28;20219;-79
2023/12/08 10:45:15;;;;;;;10.15;7.45;;;9.70;68.60;11.70;100460.00;;;;5037439;28;20254;-79
2023/12/08 10:47:44;;;;;;;14.68;9.00;;;9.80;68.70;11.70;100458.00;;;;5044099;28;20216;-79
2023/12/08 10:50:13;;;;;;;26.90;15.77;;;9.80;68.70;11.70;100464.00;;;;5042361;28;20872;-79
2023/12/08 10:52:41;;;;;;;20.13;11.38;;;9.80;68.90;11.90;100457.00;;;;5045436;28;20227;-79